sensor_id;sensor_type;location;lat;lon;timestamp;P1;durP1;ratioP1;P2;durP2;ratioP2
29958;SDS011;16815;51.100;6.516;2022-12-19T00:01:32;37.67;;;24.60;;
29958;SDS011;16815;51.100;6.516;2022-12-19T00:03:59;39.07;;;23.80;;
29958;SDS011;16815;51.100;6.516;2022-12-19T00:06:26;42.00;;;26.17;;
29958;SDS011;16815;51.100;6.516;2022-12-19T00:08:52;37.40;;;22.93;;
29958;SDS011;16815;51.100;6.516;2022-12-19T00:11:19;37.33;;;23.47;;
29958;SDS011;16815;51.100;6.516;2022-12-19T00:13:46;37.23;;;23.43;;
29958;SDS011;16815;51.100;6.516;2022-12-19T00:18:38;36.13;;;22.50;;
29958;SDS011;16815;51.100;6.516;2022-12-19T00:21:05;38.80;;;24.03;;
29958;SDS011;16815;51.100;6.516;2022-12-19T00:23:32;38.73;;;24.47;;
29958;SDS011;16815;51.100;6.516;2022-12-19T00:26:05;38.27;;;23.83;;
29958;SDS011;16815;51.100;6.516;2022-12-19T00:28:31;38.20;;;24.13;;
29958;SDS011;16815;51.100;6.516;2022-12-19T00:31:00;39.57;;;24.57;;
29958;SDS011;16815;51.100;6.516;2022-12-19T00:33:26;39.67;;;24.63;;
29958;SDS011;16815;51.100;6.516;2022-12-19T00:35:56;42.73;;;25.13;;
29958;SDS011;16815;51.100;6.516;2022-12-19T00:38:22;36.27;;;23.60;;
29958;SDS011;16815;51.100;6.516;2022-12-19T00:40:48;41.90;;;25.53;;
29958;SDS011;16815;51.100;6.516;2022-12-19T00:43:14;40.00;;;24.57;;
29958;SDS011;16815;51.100;6.516;2022-12-19T00:45:40;40.07;;;25.47;;
29958;SDS011;16815;51.100;6.516;2022-12-19T00:48:06;40.93;;;24.93;;
29958;SDS011;16815;51.100;6.516;2022-12-19T00:50:31;38.93;;;24.60;;
29958;SDS011;16815;51.100;6.516;2022-12-19T00:52:58;38.90;;;24.93;;
29958;SDS011;16815;51.100;6.516;2022-12-19T00:55:23;39.63;;;24.57;;
29958;SDS011;16815;51.100;6.516;2022-12-19T00:57:49;40.33;;;24.63;;
29958;SDS011;16815;51.100;6.516;2022-12-19T01:00:15;38.33;;;23.73;;
29958;SDS011;16815;51.100;6.516;2022-12-19T01:02:42;38.77;;;24.77;;
29958;SDS011;16815;51.100;6.516;2022-12-19T01:05:08;42.77;;;24.63;;
29958;SDS011;16815;51.100;6.516;2022-12-19T01:07:35;38.87;;;25.20;;
29958;SDS011;16815;51.100;6.516;2022-12-19T01:10:01;40.23;;;23.67;;
29958;SDS011;16815;51.100;6.516;2022-12-19T01:12:27;38.63;;;24.03;;
29958;SDS011;16815;51.100;6.516;2022-12-19T01:15:12;39.70;;;24.33;;
29958;SDS011;16815;51.100;6.516;2022-12-19T01:17:38;39.70;;;24.90;;
29958;SDS011;16815;51.100;6.516;2022-12-19T01:20:04;41.00;;;25.97;;
29958;SDS011;16815;51.100;6.516;2022-12-19T01:22:30;41.93;;;24.53;;
29958;SDS011;16815;51.100;6.516;2022-12-19T01:24:56;35.50;;;23.67;;
29958;SDS011;16815;51.100;6.516;2022-12-19T01:27:22;36.27;;;24.83;;
29958;SDS011;16815;51.100;6.516;2022-12-19T01:29:48;35.90;;;23.23;;
29958;SDS011;16815;51.100;6.516;2022-12-19T01:32:14;40.63;;;24.20;;
29958;SDS011;16815;51.100;6.516;2022-12-19T01:34:40;36.93;;;23.07;;
29958;SDS011;16815;51.100;6.516;2022-12-19T01:37:06;37.40;;;24.30;;
29958;SDS011;16815;51.100;6.516;2022-12-19T01:39:32;38.17;;;24.57;;
29958;SDS011;16815;51.100;6.516;2022-12-19T01:41:57;39.60;;;23.80;;
29958;SDS011;16815;51.100;6.516;2022-12-19T01:44:24;38.30;;;24.23;;
29958;SDS011;16815;51.100;6.516;2022-12-19T01:46:51;35.10;;;23.73;;
29958;SDS011;16815;51.100;6.516;2022-12-19T01:49:28;37.17;;;23.13;;
29958;SDS011;16815;51.100;6.516;2022-12-19T01:51:55;39.37;;;24.77;;
29958;SDS011;16815;51.100;6.516;2022-12-19T01:54:24;37.03;;;24.57;;
29958;SDS011;16815;51.100;6.516;2022-12-19T01:56:52;39.37;;;23.37;;
29958;SDS011;16815;51.100;6.516;2022-12-19T01:59:20;38.73;;;24.77;;
29958;SDS011;16815;51.100;6.516;2022-12-19T02:01:47;37.80;;;24.13;;
29958;SDS011;16815;51.100;6.516;2022-12-19T02:04:15;41.83;;;25.07;;
29958;SDS011;16815;51.100;6.516;2022-12-19T02:06:41;39.73;;;24.70;;
29958;SDS011;16815;51.100;6.516;2022-12-19T02:09:07;39.20;;;24.60;;
29958;SDS011;16815;51.100;6.516;2022-12-19T02:11:33;34.03;;;22.57;;
29958;SDS011;16815;51.100;6.516;2022-12-19T02:13:59;38.10;;;24.13;;
29958;SDS011;16815;51.100;6.516;2022-12-19T02:16:36;37.70;;;22.40;;
29958;SDS011;16815;51.100;6.516;2022-12-19T02:21:58;39.67;;;22.87;;
29958;SDS011;16815;51.100;6.516;2022-12-19T02:29:40;42.90;;;24.30;;
29958;SDS011;16815;51.100;6.516;2022-12-19T02:32:17;40.67;;;24.23;;
29958;SDS011;16815;51.100;6.516;2022-12-19T02:37:17;38.37;;;24.60;;
29958;SDS011;16815;51.100;6.516;2022-12-19T02:39:50;37.27;;;24.67;;
29958;SDS011;16815;51.100;6.516;2022-12-19T02:42:19;37.17;;;24.03;;
29958;SDS011;16815;51.100;6.516;2022-12-19T02:44:48;37.07;;;23.50;;
29958;SDS011;16815;51.100;6.516;2022-12-19T02:47:14;39.20;;;24.07;;
29958;SDS011;16815;51.100;6.516;2022-12-19T02:49:41;40.20;;;24.73;;
29958;SDS011;16815;51.100;6.516;2022-12-19T02:52:07;38.70;;;24.13;;
29958;SDS011;16815;51.100;6.516;2022-12-19T02:54:33;39.90;;;24.00;;
29958;SDS011;16815;51.100;6.516;2022-12-19T02:57:03;39.70;;;23.97;;
29958;SDS011;16815;51.100;6.516;2022-12-19T03:02:22;41.70;;;23.30;;
29958;SDS011;16815;51.100;6.516;2022-12-19T03:04:55;36.47;;;23.70;;
29958;SDS011;16815;51.100;6.516;2022-12-19T03:10:04;36.23;;;23.07;;
29958;SDS011;16815;51.100;6.516;2022-12-19T03:13:16;38.77;;;24.17;;
29958;SDS011;16815;51.100;6.516;2022-12-19T03:15:21;39.20;;;23.57;;
29958;SDS011;16815;51.100;6.516;2022-12-19T03:17:48;36.00;;;22.90;;
29958;SDS011;16815;51.100;6.516;2022-12-19T03:20:21;38.53;;;24.23;;
29958;SDS011;16815;51.100;6.516;2022-12-19T03:22:49;38.97;;;24.60;;
29958;SDS011;16815;51.100;6.516;2022-12-19T03:25:15;37.17;;;23.90;;
29958;SDS011;16815;51.100;6.516;2022-12-19T03:27:41;39.53;;;23.33;;
29958;SDS011;16815;51.100;6.516;2022-12-19T03:30:09;37.33;;;23.73;;
29958;SDS011;16815;51.100;6.516;2022-12-19T03:32:37;38.80;;;24.03;;
29958;SDS011;16815;51.100;6.516;2022-12-19T03:35:15;38.17;;;23.60;;
29958;SDS011;16815;51.100;6.516;2022-12-19T03:37:42;36.43;;;22.87;;
29958;SDS011;16815;51.100;6.516;2022-12-19T03:40:11;41.23;;;24.80;;
29958;SDS011;16815;51.100;6.516;2022-12-19T03:42:38;39.30;;;23.87;;
29958;SDS011;16815;51.100;6.516;2022-12-19T03:45:30;36.80;;;22.07;;
29958;SDS011;16815;51.100;6.516;2022-12-19T03:47:59;38.70;;;23.43;;
29958;SDS011;16815;51.100;6.516;2022-12-19T03:50:29;37.50;;;24.13;;
29958;SDS011;16815;51.100;6.516;2022-12-19T03:53:16;39.33;;;24.53;;
29958;SDS011;16815;51.100;6.516;2022-12-19T03:55:48;39.03;;;23.27;;
29958;SDS011;16815;51.100;6.516;2022-12-19T03:58:22;37.30;;;23.37;;
29958;SDS011;16815;51.100;6.516;2022-12-19T04:00:51;38.00;;;23.77;;
29958;SDS011;16815;51.100;6.516;2022-12-19T04:03:18;40.00;;;23.70;;
29958;SDS011;16815;51.100;6.516;2022-12-19T04:05:45;38.90;;;22.87;;
29958;SDS011;16815;51.100;6.516;2022-12-19T04:08:11;38.53;;;23.77;;
29958;SDS011;16815;51.100;6.516;2022-12-19T04:10:39;37.10;;;22.90;;
29958;SDS011;16815;51.100;6.516;2022-12-19T04:13:09;39.63;;;24.10;;
29958;SDS011;16815;51.100;6.516;2022-12-19T04:15:39;38.20;;;22.20;;
29958;SDS011;16815;51.100;6.516;2022-12-19T04:18:08;36.83;;;22.53;;
29958;SDS011;16815;51.100;6.516;2022-12-19T04:20:35;43.57;;;22.90;;
29958;SDS011;16815;51.100;6.516;2022-12-19T04:25:29;36.97;;;22.47;;
29958;SDS011;16815;51.100;6.516;2022-12-19T04:27:57;38.20;;;23.27;;
29958;SDS011;16815;51.100;6.516;2022-12-19T04:30:24;43.13;;;23.80;;
29958;SDS011;16815;51.100;6.516;2022-12-19T04:32:50;37.67;;;22.63;;
29958;SDS011;16815;51.100;6.516;2022-12-19T04:35:16;41.47;;;22.73;;
29958;SDS011;16815;51.100;6.516;2022-12-19T04:37:42;37.07;;;22.73;;
29958;SDS011;16815;51.100;6.516;2022-12-19T04:40:08;36.77;;;22.07;;
29958;SDS011;16815;51.100;6.516;2022-12-19T04:42:35;35.30;;;22.53;;
29958;SDS011;16815;51.100;6.516;2022-12-19T04:45:02;37.57;;;23.73;;
29958;SDS011;16815;51.100;6.516;2022-12-19T04:47:28;42.43;;;23.53;;
29958;SDS011;16815;51.100;6.516;2022-12-19T04:49:54;39.73;;;24.23;;
29958;SDS011;16815;51.100;6.516;2022-12-19T04:52:20;36.60;;;22.47;;
29958;SDS011;16815;51.100;6.516;2022-12-19T04:54:46;34.77;;;22.50;;
29958;SDS011;16815;51.100;6.516;2022-12-19T04:57:12;33.17;;;21.53;;
29958;SDS011;16815;51.100;6.516;2022-12-19T04:59:38;31.93;;;20.47;;
29958;SDS011;16815;51.100;6.516;2022-12-19T05:02:07;33.47;;;22.10;;
29958;SDS011;16815;51.100;6.516;2022-12-19T05:04:33;35.13;;;22.13;;
29958;SDS011;16815;51.100;6.516;2022-12-19T05:06:59;32.63;;;20.30;;
29958;SDS011;16815;51.100;6.516;2022-12-19T05:09:25;30.97;;;20.10;;
29958;SDS011;16815;51.100;6.516;2022-12-19T05:11:51;34.80;;;20.80;;
29958;SDS011;16815;51.100;6.516;2022-12-19T05:14:16;36.37;;;21.50;;
29958;SDS011;16815;51.100;6.516;2022-12-19T05:16:42;32.63;;;20.37;;
29958;SDS011;16815;51.100;6.516;2022-12-19T05:19:08;30.03;;;20.30;;
29958;SDS011;16815;51.100;6.516;2022-12-19T05:21:34;33.23;;;20.53;;
29958;SDS011;16815;51.100;6.516;2022-12-19T05:24:00;29.20;;;19.67;;
29958;SDS011;16815;51.100;6.516;2022-12-19T05:26:26;32.30;;;19.60;;
29958;SDS011;16815;51.100;6.516;2022-12-19T05:28:52;32.23;;;20.07;;
29958;SDS011;16815;51.100;6.516;2022-12-19T05:31:19;30.37;;;19.17;;
29958;SDS011;16815;51.100;6.516;2022-12-19T05:33:45;31.30;;;20.07;;
29958;SDS011;16815;51.100;6.516;2022-12-19T05:36:12;32.83;;;19.57;;
29958;SDS011;16815;51.100;6.516;2022-12-19T05:38:38;31.97;;;19.60;;
29958;SDS011;16815;51.100;6.516;2022-12-19T05:41:05;34.50;;;20.87;;
29958;SDS011;16815;51.100;6.516;2022-12-19T05:43:31;30.60;;;19.30;;
29958;SDS011;16815;51.100;6.516;2022-12-19T05:45:57;30.20;;;19.93;;
29958;SDS011;16815;51.100;6.516;2022-12-19T05:48:23;29.40;;;18.33;;
29958;SDS011;16815;51.100;6.516;2022-12-19T05:50:49;27.63;;;18.67;;
29958;SDS011;16815;51.100;6.516;2022-12-19T05:53:15;30.80;;;20.10;;
29958;SDS011;16815;51.100;6.516;2022-12-19T05:55:41;34.00;;;19.20;;
29958;SDS011;16815;51.100;6.516;2022-12-19T05:58:07;31.23;;;18.97;;
29958;SDS011;16815;51.100;6.516;2022-12-19T06:00:33;33.00;;;19.97;;
29958;SDS011;16815;51.100;6.516;2022-12-19T06:02:59;30.43;;;19.93;;
29958;SDS011;16815;51.100;6.516;2022-12-19T06:05:25;28.43;;;19.00;;
29958;SDS011;16815;51.100;6.516;2022-12-19T06:07:51;31.00;;;18.70;;
29958;SDS011;16815;51.100;6.516;2022-12-19T06:10:17;33.00;;;17.90;;
29958;SDS011;16815;51.100;6.516;2022-12-19T06:12:43;25.40;;;16.97;;
29958;SDS011;16815;51.100;6.516;2022-12-19T06:15:09;24.13;;;16.93;;
29958;SDS011;16815;51.100;6.516;2022-12-19T06:17:35;27.80;;;17.77;;
29958;SDS011;16815;51.100;6.516;2022-12-19T06:20:01;30.83;;;18.07;;
29958;SDS011;16815;51.100;6.516;2022-12-19T06:22:27;28.57;;;16.87;;
29958;SDS011;16815;51.100;6.516;2022-12-19T06:24:53;25.43;;;16.33;;
29958;SDS011;16815;51.100;6.516;2022-12-19T06:27:19;23.30;;;16.30;;
29958;SDS011;16815;51.100;6.516;2022-12-19T06:29:45;26.03;;;16.13;;
29958;SDS011;16815;51.100;6.516;2022-12-19T06:32:11;24.90;;;17.60;;
29958;SDS011;16815;51.100;6.516;2022-12-19T06:34:36;26.67;;;15.80;;
29958;SDS011;16815;51.100;6.516;2022-12-19T06:37:02;23.37;;;15.90;;
29958;SDS011;16815;51.100;6.516;2022-12-19T06:39:28;25.53;;;16.07;;
29958;SDS011;16815;51.100;6.516;2022-12-19T06:41:54;22.23;;;15.47;;
29958;SDS011;16815;51.100;6.516;2022-12-19T06:44:39;22.70;;;15.30;;
29958;SDS011;16815;51.100;6.516;2022-12-19T06:47:05;25.57;;;16.30;;
29958;SDS011;16815;51.100;6.516;2022-12-19T06:49:31;26.23;;;15.53;;
29958;SDS011;16815;51.100;6.516;2022-12-19T06:51:57;21.93;;;15.13;;
29958;SDS011;16815;51.100;6.516;2022-12-19T06:54:24;21.57;;;15.03;;
29958;SDS011;16815;51.100;6.516;2022-12-19T06:56:50;22.07;;;14.83;;
29958;SDS011;16815;51.100;6.516;2022-12-19T06:59:16;20.57;;;14.23;;
29958;SDS011;16815;51.100;6.516;2022-12-19T07:01:49;19.83;;;13.63;;
29958;SDS011;16815;51.100;6.516;2022-12-19T07:04:22;21.93;;;14.80;;
29958;SDS011;16815;51.100;6.516;2022-12-19T07:06:49;20.53;;;13.40;;
29958;SDS011;16815;51.100;6.516;2022-12-19T07:09:15;20.23;;;13.27;;
29958;SDS011;16815;51.100;6.516;2022-12-19T07:11:42;17.43;;;13.07;;
29958;SDS011;16815;51.100;6.516;2022-12-19T07:14:08;21.27;;;14.03;;
29958;SDS011;16815;51.100;6.516;2022-12-19T07:16:34;18.47;;;12.97;;
29958;SDS011;16815;51.100;6.516;2022-12-19T07:19:00;24.57;;;13.97;;
29958;SDS011;16815;51.100;6.516;2022-12-19T07:21:26;20.13;;;12.77;;
29958;SDS011;16815;51.100;6.516;2022-12-19T07:23:52;19.63;;;12.80;;
29958;SDS011;16815;51.100;6.516;2022-12-19T07:26:18;15.60;;;11.03;;
29958;SDS011;16815;51.100;6.516;2022-12-19T07:28:43;20.27;;;11.80;;
29958;SDS011;16815;51.100;6.516;2022-12-19T07:31:09;18.23;;;12.50;;
29958;SDS011;16815;51.100;6.516;2022-12-19T07:33:35;17.77;;;12.93;;
29958;SDS011;16815;51.100;6.516;2022-12-19T07:36:01;16.07;;;12.30;;
29958;SDS011;16815;51.100;6.516;2022-12-19T07:38:27;19.57;;;12.17;;
29958;SDS011;16815;51.100;6.516;2022-12-19T07:40:53;16.23;;;11.80;;
29958;SDS011;16815;51.100;6.516;2022-12-19T07:43:19;15.73;;;11.37;;
29958;SDS011;16815;51.100;6.516;2022-12-19T07:45:45;15.50;;;11.17;;
29958;SDS011;16815;51.100;6.516;2022-12-19T07:48:11;18.30;;;11.03;;
29958;SDS011;16815;51.100;6.516;2022-12-19T07:50:37;17.13;;;11.50;;
29958;SDS011;16815;51.100;6.516;2022-12-19T07:53:03;14.30;;;10.37;;
29958;SDS011;16815;51.100;6.516;2022-12-19T07:55:29;15.30;;;10.40;;
29958;SDS011;16815;51.100;6.516;2022-12-19T07:57:55;15.67;;;9.93;;
29958;SDS011;16815;51.100;6.516;2022-12-19T08:00:21;13.73;;;9.23;;
29958;SDS011;16815;51.100;6.516;2022-12-19T08:02:47;15.93;;;9.93;;
29958;SDS011;16815;51.100;6.516;2022-12-19T08:05:13;15.77;;;8.67;;
29958;SDS011;16815;51.100;6.516;2022-12-19T08:07:39;14.00;;;9.00;;
29958;SDS011;16815;51.100;6.516;2022-12-19T08:10:05;13.03;;;8.97;;
29958;SDS011;16815;51.100;6.516;2022-12-19T08:12:31;17.77;;;8.87;;
29958;SDS011;16815;51.100;6.516;2022-12-19T08:14:57;10.30;;;8.53;;
29958;SDS011;16815;51.100;6.516;2022-12-19T08:17:23;13.10;;;8.50;;
29958;SDS011;16815;51.100;6.516;2022-12-19T08:19:50;13.43;;;8.97;;
29958;SDS011;16815;51.100;6.516;2022-12-19T08:22:16;14.13;;;8.50;;
29958;SDS011;16815;51.100;6.516;2022-12-19T08:24:42;11.33;;;8.27;;
29958;SDS011;16815;51.100;6.516;2022-12-19T08:27:07;12.70;;;8.70;;
29958;SDS011;16815;51.100;6.516;2022-12-19T08:29:33;13.33;;;8.33;;
29958;SDS011;16815;51.100;6.516;2022-12-19T08:31:59;10.60;;;8.80;;
29958;SDS011;16815;51.100;6.516;2022-12-19T08:34:25;10.93;;;8.67;;
29958;SDS011;16815;51.100;6.516;2022-12-19T08:36:51;14.07;;;9.43;;
29958;SDS011;16815;51.100;6.516;2022-12-19T08:39:17;13.97;;;9.57;;
29958;SDS011;16815;51.100;6.516;2022-12-19T08:41:43;17.17;;;11.37;;
29958;SDS011;16815;51.100;6.516;2022-12-19T08:44:10;14.70;;;11.20;;
29958;SDS011;16815;51.100;6.516;2022-12-19T08:46:37;15.90;;;10.30;;
29958;SDS011;16815;51.100;6.516;2022-12-19T08:49:03;12.10;;;9.47;;
29958;SDS011;16815;51.100;6.516;2022-12-19T08:51:29;14.67;;;10.63;;
29958;SDS011;16815;51.100;6.516;2022-12-19T08:53:55;13.20;;;10.40;;
29958;SDS011;16815;51.100;6.516;2022-12-19T08:56:21;14.80;;;10.40;;
29958;SDS011;16815;51.100;6.516;2022-12-19T08:58:47;12.73;;;8.87;;
29958;SDS011;16815;51.100;6.516;2022-12-19T09:01:16;10.67;;;8.77;;
29958;SDS011;16815;51.100;6.516;2022-12-19T09:03:47;12.10;;;8.50;;
29958;SDS011;16815;51.100;6.516;2022-12-19T09:06:13;9.80;;;8.23;;
29958;SDS011;16815;51.100;6.516;2022-12-19T09:08:41;10.87;;;7.73;;
29958;SDS011;16815;51.100;6.516;2022-12-19T09:11:08;13.60;;;7.97;;
29958;SDS011;16815;51.100;6.516;2022-12-19T09:13:35;10.00;;;7.70;;
29958;SDS011;16815;51.100;6.516;2022-12-19T09:16:03;9.87;;;8.13;;
29958;SDS011;16815;51.100;6.516;2022-12-19T09:18:29;13.77;;;8.47;;
29958;SDS011;16815;51.100;6.516;2022-12-19T09:20:58;10.30;;;7.60;;
29958;SDS011;16815;51.100;6.516;2022-12-19T09:23:24;15.63;;;7.37;;
29958;SDS011;16815;51.100;6.516;2022-12-19T09:25:54;10.40;;;7.70;;
29958;SDS011;16815;51.100;6.516;2022-12-19T09:28:20;10.50;;;8.10;;
29958;SDS011;16815;51.100;6.516;2022-12-19T09:31:09;13.80;;;7.70;;
29958;SDS011;16815;51.100;6.516;2022-12-19T09:33:33;10.53;;;7.80;;
29958;SDS011;16815;51.100;6.516;2022-12-19T09:35:59;10.77;;;7.40;;
29958;SDS011;16815;51.100;6.516;2022-12-19T09:38:26;13.50;;;8.67;;
29958;SDS011;16815;51.100;6.516;2022-12-19T09:48:56;8.57;;;6.97;;
29958;SDS011;16815;51.100;6.516;2022-12-19T09:51:33;8.80;;;7.30;;
29958;SDS011;16815;51.100;6.516;2022-12-19T09:54:22;12.90;;;7.43;;
29958;SDS011;16815;51.100;6.516;2022-12-19T09:56:48;10.23;;;7.30;;
29958;SDS011;16815;51.100;6.516;2022-12-19T09:59:19;13.90;;;7.67;;
29958;SDS011;16815;51.100;6.516;2022-12-19T10:01:52;13.23;;;8.47;;
29958;SDS011;16815;51.100;6.516;2022-12-19T10:04:18;10.40;;;6.87;;
29958;SDS011;16815;51.100;6.516;2022-12-19T10:06:44;10.40;;;6.83;;
29958;SDS011;16815;51.100;6.516;2022-12-19T10:09:14;7.50;;;6.37;;
29958;SDS011;16815;51.100;6.516;2022-12-19T10:16:50;8.57;;;7.13;;
29958;SDS011;16815;51.100;6.516;2022-12-19T10:28:05;8.80;;;6.67;;
29958;SDS011;16815;51.100;6.516;2022-12-19T10:30:38;11.90;;;6.57;;
29958;SDS011;16815;51.100;6.516;2022-12-19T10:33:16;9.97;;;6.87;;
29958;SDS011;16815;51.100;6.516;2022-12-19T10:35:44;8.70;;;6.40;;
29958;SDS011;16815;51.100;6.516;2022-12-19T10:38:18;8.57;;;6.37;;
29958;SDS011;16815;51.100;6.516;2022-12-19T10:43:34;10.00;;;6.97;;
29958;SDS011;16815;51.100;6.516;2022-12-19T10:46:09;11.17;;;7.00;;
29958;SDS011;16815;51.100;6.516;2022-12-19T10:48:38;9.03;;;6.40;;
29958;SDS011;16815;51.100;6.516;2022-12-19T10:51:04;12.33;;;6.30;;
29958;SDS011;16815;51.100;6.516;2022-12-19T10:53:34;10.13;;;6.23;;
29958;SDS011;16815;51.100;6.516;2022-12-19T10:56:01;7.37;;;6.60;;
29958;SDS011;16815;51.100;6.516;2022-12-19T10:58:36;13.10;;;7.93;;
29958;SDS011;16815;51.100;6.516;2022-12-19T11:01:23;12.43;;;7.33;;
29958;SDS011;16815;51.100;6.516;2022-12-19T11:09:23;11.17;;;7.90;;
29958;SDS011;16815;51.100;6.516;2022-12-19T11:11:57;12.17;;;8.63;;
29958;SDS011;16815;51.100;6.516;2022-12-19T11:14:27;13.60;;;8.60;;
29958;SDS011;16815;51.100;6.516;2022-12-19T11:16:53;14.77;;;9.90;;
29958;SDS011;16815;51.100;6.516;2022-12-19T11:19:20;13.87;;;10.30;;
29958;SDS011;16815;51.100;6.516;2022-12-19T11:21:47;16.80;;;9.40;;
29958;SDS011;16815;51.100;6.516;2022-12-19T11:24:19;14.27;;;9.57;;
29958;SDS011;16815;51.100;6.516;2022-12-19T11:26:47;16.93;;;11.57;;
29958;SDS011;16815;51.100;6.516;2022-12-19T11:29:36;13.57;;;9.50;;
29958;SDS011;16815;51.100;6.516;2022-12-19T11:32:07;14.40;;;10.07;;
29958;SDS011;16815;51.100;6.516;2022-12-19T11:34:48;16.97;;;11.20;;
29958;SDS011;16815;51.100;6.516;2022-12-19T11:37:16;14.63;;;11.10;;
29958;SDS011;16815;51.100;6.516;2022-12-19T11:39:44;15.00;;;11.00;;
29958;SDS011;16815;51.100;6.516;2022-12-19T11:42:22;14.67;;;10.63;;
29958;SDS011;16815;51.100;6.516;2022-12-19T11:44:52;17.73;;;10.70;;
29958;SDS011;16815;51.100;6.516;2022-12-19T11:55:24;14.43;;;10.70;;
29958;SDS011;16815;51.100;6.516;2022-12-19T11:57:50;13.50;;;10.33;;
29958;SDS011;16815;51.100;6.516;2022-12-19T12:00:18;14.93;;;10.07;;
29958;SDS011;16815;51.100;6.516;2022-12-19T12:02:55;16.93;;;10.13;;
29958;SDS011;16815;51.100;6.516;2022-12-19T12:07:54;17.93;;;10.17;;
29958;SDS011;16815;51.100;6.516;2022-12-19T12:10:21;13.37;;;9.70;;
29958;SDS011;16815;51.100;6.516;2022-12-19T12:15:26;15.00;;;10.27;;
29958;SDS011;16815;51.100;6.516;2022-12-19T12:18:03;12.60;;;9.53;;
29958;SDS011;16815;51.100;6.516;2022-12-19T12:20:54;16.13;;;9.93;;
29958;SDS011;16815;51.100;6.516;2022-12-19T12:26:15;16.10;;;10.30;;
29958;SDS011;16815;51.100;6.516;2022-12-19T12:36:45;14.40;;;9.10;;
29958;SDS011;16815;51.100;6.516;2022-12-19T12:44:44;12.57;;;9.53;;
29958;SDS011;16815;51.100;6.516;2022-12-19T12:47:13;13.03;;;9.00;;
29958;SDS011;16815;51.100;6.516;2022-12-19T12:49:50;11.97;;;9.57;;
29958;SDS011;16815;51.100;6.516;2022-12-19T12:52:20;13.20;;;9.33;;
29958;SDS011;16815;51.100;6.516;2022-12-19T12:54:48;14.17;;;10.20;;
29958;SDS011;16815;51.100;6.516;2022-12-19T12:57:17;15.70;;;10.93;;
29958;SDS011;16815;51.100;6.516;2022-12-19T12:59:44;13.20;;;10.00;;
29958;SDS011;16815;51.100;6.516;2022-12-19T13:02:14;14.30;;;10.17;;
29958;SDS011;16815;51.100;6.516;2022-12-19T13:04:42;14.50;;;10.80;;
29958;SDS011;16815;51.100;6.516;2022-12-19T13:07:28;14.00;;;10.20;;
29958;SDS011;16815;51.100;6.516;2022-12-19T13:12:51;14.80;;;9.67;;
29958;SDS011;16815;51.100;6.516;2022-12-19T13:27:58;15.03;;;10.83;;
29958;SDS011;16815;51.100;6.516;2022-12-19T13:30:38;14.97;;;10.60;;
29958;SDS011;16815;51.100;6.516;2022-12-19T13:33:24;13.03;;;9.33;;
29958;SDS011;16815;51.100;6.516;2022-12-19T13:36:43;13.30;;;9.30;;
29958;SDS011;16815;51.100;6.516;2022-12-19T13:38:56;17.70;;;11.20;;
29958;SDS011;16815;51.100;6.516;2022-12-19T13:41:28;15.70;;;10.40;;
29958;SDS011;16815;51.100;6.516;2022-12-19T13:44:12;13.63;;;9.37;;
29958;SDS011;16815;51.100;6.516;2022-12-19T13:46:42;14.70;;;10.17;;
29958;SDS011;16815;51.100;6.516;2022-12-19T13:51:55;15.97;;;10.07;;
29958;SDS011;16815;51.100;6.516;2022-12-19T13:54:25;11.77;;;9.00;;
29958;SDS011;16815;51.100;6.516;2022-12-19T13:56:53;12.57;;;8.70;;
29958;SDS011;16815;51.100;6.516;2022-12-19T13:59:20;12.03;;;8.00;;
29958;SDS011;16815;51.100;6.516;2022-12-19T14:01:46;11.50;;;8.77;;
29958;SDS011;16815;51.100;6.516;2022-12-19T14:04:20;11.03;;;8.17;;
29958;SDS011;16815;51.100;6.516;2022-12-19T14:06:48;14.37;;;8.23;;
29958;SDS011;16815;51.100;6.516;2022-12-19T14:09:21;10.60;;;9.03;;
29958;SDS011;16815;51.100;6.516;2022-12-19T14:11:48;14.67;;;9.77;;
29958;SDS011;16815;51.100;6.516;2022-12-19T14:14:16;13.10;;;8.57;;
29958;SDS011;16815;51.100;6.516;2022-12-19T14:17:34;12.27;;;8.57;;
29958;SDS011;16815;51.100;6.516;2022-12-19T14:19:53;13.57;;;7.93;;
29958;SDS011;16815;51.100;6.516;2022-12-19T14:22:20;10.90;;;7.93;;
29958;SDS011;16815;51.100;6.516;2022-12-19T14:27:41;10.70;;;8.23;;
29958;SDS011;16815;51.100;6.516;2022-12-19T14:30:21;11.20;;;7.57;;
29958;SDS011;16815;51.100;6.516;2022-12-19T14:32:49;10.67;;;7.87;;
29958;SDS011;16815;51.100;6.516;2022-12-19T14:35:17;7.93;;;6.90;;
29958;SDS011;16815;51.100;6.516;2022-12-19T14:37:44;10.37;;;7.43;;
29958;SDS011;16815;51.100;6.516;2022-12-19T14:40:20;9.83;;;7.00;;
29958;SDS011;16815;51.100;6.516;2022-12-19T14:42:46;8.77;;;6.83;;
29958;SDS011;16815;51.100;6.516;2022-12-19T14:47:57;8.77;;;6.67;;
29958;SDS011;16815;51.100;6.516;2022-12-19T14:56:00;8.93;;;7.20;;
29958;SDS011;16815;51.100;6.516;2022-12-19T14:58:28;8.63;;;6.27;;
29958;SDS011;16815;51.100;6.516;2022-12-19T15:00:55;7.30;;;5.93;;
29958;SDS011;16815;51.100;6.516;2022-12-19T15:03:29;7.67;;;5.60;;
29958;SDS011;16815;51.100;6.516;2022-12-19T15:06:05;7.93;;;5.60;;
29958;SDS011;16815;51.100;6.516;2022-12-19T15:08:33;7.07;;;5.13;;
29958;SDS011;16815;51.100;6.516;2022-12-19T15:11:00;5.83;;;4.93;;
29958;SDS011;16815;51.100;6.516;2022-12-19T15:13:57;5.73;;;4.90;;
29958;SDS011;16815;51.100;6.516;2022-12-19T15:16:30;6.90;;;5.40;;
29958;SDS011;16815;51.100;6.516;2022-12-19T15:18:58;6.03;;;5.13;;
29958;SDS011;16815;51.100;6.516;2022-12-19T15:21:25;6.90;;;5.73;;
29958;SDS011;16815;51.100;6.516;2022-12-19T15:23:51;5.43;;;4.90;;
29958;SDS011;16815;51.100;6.516;2022-12-19T15:28:53;7.73;;;4.53;;
29958;SDS011;16815;51.100;6.516;2022-12-19T15:33:52;7.13;;;4.73;;
29958;SDS011;16815;51.100;6.516;2022-12-19T15:36:18;8.67;;;5.37;;
29958;SDS011;16815;51.100;6.516;2022-12-19T15:38:44;7.40;;;5.27;;
29958;SDS011;16815;51.100;6.516;2022-12-19T15:41:11;7.77;;;5.37;;
29958;SDS011;16815;51.100;6.516;2022-12-19T15:43:39;7.57;;;5.47;;
29958;SDS011;16815;51.100;6.516;2022-12-19T15:46:05;6.27;;;5.67;;
29958;SDS011;16815;51.100;6.516;2022-12-19T15:48:31;10.40;;;5.43;;
29958;SDS011;16815;51.100;6.516;2022-12-19T15:50:58;8.77;;;6.23;;
29958;SDS011;16815;51.100;6.516;2022-12-19T15:53:28;7.17;;;5.57;;
29958;SDS011;16815;51.100;6.516;2022-12-19T15:55:55;6.87;;;5.37;;
29958;SDS011;16815;51.100;6.516;2022-12-19T15:58:23;12.50;;;5.90;;
29958;SDS011;16815;51.100;6.516;2022-12-19T16:00:53;6.23;;;5.10;;
29958;SDS011;16815;51.100;6.516;2022-12-19T16:03:20;8.53;;;5.47;;
29958;SDS011;16815;51.100;6.516;2022-12-19T16:05:46;5.93;;;5.20;;
29958;SDS011;16815;51.100;6.516;2022-12-19T16:08:13;9.67;;;4.70;;
29958;SDS011;16815;51.100;6.516;2022-12-19T16:10:39;9.33;;;4.40;;
29958;SDS011;16815;51.100;6.516;2022-12-19T16:13:08;7.27;;;4.57;;
29958;SDS011;16815;51.100;6.516;2022-12-19T16:15:39;7.63;;;4.27;;
29958;SDS011;16815;51.100;6.516;2022-12-19T16:18:05;5.77;;;4.47;;
29958;SDS011;16815;51.100;6.516;2022-12-19T16:20:32;5.67;;;4.20;;
29958;SDS011;16815;51.100;6.516;2022-12-19T16:23:03;5.97;;;4.07;;
29958;SDS011;16815;51.100;6.516;2022-12-19T16:25:45;6.37;;;4.23;;
29958;SDS011;16815;51.100;6.516;2022-12-19T16:28:18;5.63;;;4.47;;
29958;SDS011;16815;51.100;6.516;2022-12-19T16:30:44;6.63;;;4.07;;
29958;SDS011;16815;51.100;6.516;2022-12-19T16:33:22;5.13;;;4.20;;